createdAt,value
2019-03-12T00:01:44.792Z,23.23
2019-03-12T00:04:12.117Z,19.87
2019-03-12T00:06:39.483Z,22.03
2019-03-12T00:09:06.810Z,20.70
2019-03-12T00:11:34.176Z,31.37
2019-03-12T00:14:01.545Z,27.87
2019-03-12T00:16:28.869Z,28.63
2019-03-12T00:18:56.201Z,27.00
2019-03-12T00:21:23.606Z,26.07
2019-03-12T00:23:51.007Z,25.67
2019-03-12T00:26:18.339Z,29.07
2019-03-12T00:28:45.660Z,26.57
2019-03-12T00:31:12.998Z,32.03
2019-03-12T00:33:40.330Z,28.40
2019-03-12T00:36:07.749Z,27.50
2019-03-12T00:38:35.058Z,23.20
2019-03-12T00:41:02.404Z,27.77
2019-03-12T00:43:29.747Z,29.53
2019-03-12T00:45:57.096Z,27.80
2019-03-12T00:48:24.479Z,27.57
2019-03-12T00:50:51.817Z,29.17
2019-03-12T00:53:19.149Z,33.50
2019-03-12T00:55:46.471Z,31.10
2019-03-12T00:58:13.826Z,33.30
2019-03-12T01:00:41.181Z,36.50
2019-03-12T01:03:08.586Z,31.97
2019-03-12T01:05:35.976Z,33.57
2019-03-12T01:08:03.319Z,33.53
2019-03-12T01:10:30.804Z,35.77
2019-03-12T01:12:58.166Z,36.37
2019-03-12T01:15:25.504Z,35.77
2019-03-12T01:17:52.858Z,35.43
2019-03-12T01:20:20.193Z,33.83
2019-03-12T01:22:47.504Z,37.30
2019-03-12T01:25:14.866Z,30.83
2019-03-12T01:27:42.188Z,34.77
2019-03-12T01:30:11.083Z,34.43
2019-03-12T01:32:38.415Z,35.03
2019-03-12T01:35:06.581Z,34.60
2019-03-12T01:37:33.987Z,31.57
2019-03-12T01:40:01.219Z,35.10
2019-03-12T01:42:28.601Z,31.43
2019-03-12T01:44:55.912Z,31.33
2019-03-12T01:47:23.230Z,30.23
2019-03-12T01:49:50.621Z,32.67
2019-03-12T01:52:17.935Z,33.93
2019-03-12T01:54:45.280Z,30.87
2019-03-12T01:57:12.641Z,29.40
2019-03-12T01:59:40.028Z,34.43
2019-03-12T02:02:07.345Z,30.70
2019-03-12T02:04:35.304Z,27.90
2019-03-12T02:07:02.620Z,30.33
2019-03-12T02:09:30.621Z,28.90
2019-03-12T02:11:58.072Z,23.47
2019-03-12T02:14:26.165Z,26.47
2019-03-12T02:16:53.498Z,26.03
2019-03-12T02:19:20.897Z,24.93
2019-03-12T02:21:48.213Z,27.53
2019-03-12T02:24:15.632Z,25.33
2019-03-12T02:26:43.028Z,26.93
2019-03-12T02:29:10.353Z,21.40
2019-03-12T02:31:38.060Z,26.43
2019-03-12T02:34:05.426Z,25.33
2019-03-12T02:36:32.731Z,27.77
2019-03-12T02:39:00.056Z,26.83
2019-03-12T02:41:27.406Z,25.23
2019-03-12T02:43:54.742Z,26.83
2019-03-12T02:46:22.051Z,25.87
2019-03-12T02:48:49.537Z,25.53
2019-03-12T02:51:16.844Z,28.27
2019-03-12T02:53:44.184Z,32.40
2019-03-12T02:56:11.512Z,31.13
2019-03-12T02:58:39.127Z,36.30
2019-03-12T03:01:06.437Z,33.17
2019-03-12T03:03:33.788Z,33.50
2019-03-12T03:06:11.954Z,34.67
2019-03-12T03:08:39.541Z,33.57
2019-03-12T03:11:06.864Z,35.23
2019-03-12T03:13:34.206Z,32.13
2019-03-12T03:16:01.661Z,32.60
2019-03-12T03:18:28.974Z,32.17
2019-03-12T03:20:56.312Z,33.33
2019-03-12T03:23:23.632Z,28.70
2019-03-12T03:25:50.965Z,31.27
2019-03-12T03:28:18.287Z,26.80
2019-03-12T03:30:45.609Z,26.87
2019-03-12T03:33:12.926Z,33.03
2019-03-12T03:35:40.512Z,38.50
2019-03-12T03:38:07.780Z,38.60
2019-03-12T03:40:35.115Z,43.13
2019-03-12T03:43:02.462Z,38.23
2019-03-12T03:45:29.779Z,34.93
2019-03-12T03:47:57.089Z,39.00
2019-03-12T03:50:24.437Z,38.90
2019-03-12T03:52:51.738Z,41.17
2019-03-12T03:55:22.351Z,38.17
2019-03-12T03:57:49.705Z,44.63
2019-03-12T04:00:20.858Z,41.37
2019-03-12T04:02:48.216Z,38.07
2019-03-12T04:05:15.611Z,42.10
2019-03-12T04:07:43.399Z,38.93
2019-03-12T04:10:11.614Z,44.53
2019-03-12T04:12:38.932Z,43.83
2019-03-12T04:15:07.866Z,39.73
2019-03-12T04:17:35.223Z,44.57
2019-03-12T04:20:02.894Z,38.53
2019-03-12T04:22:30.233Z,39.43
2019-03-12T04:24:57.578Z,39.47
2019-03-12T04:27:24.943Z,44.27
2019-03-12T04:29:52.285Z,34.43
2019-03-12T04:32:19.587Z,39.63
2019-03-12T04:34:46.922Z,38.93
2019-03-12T04:37:14.240Z,38.30
2019-03-12T04:39:41.577Z,32.57
2019-03-12T04:42:08.965Z,34.63
2019-03-12T04:44:36.403Z,31.07
2019-03-12T04:47:03.721Z,24.60
2019-03-12T04:49:31.033Z,24.30
2019-03-12T04:51:58.385Z,27.83
2019-03-12T04:54:25.692Z,30.13
2019-03-12T04:56:53.045Z,35.77
2019-03-12T04:59:20.347Z,35.57
2019-03-12T05:01:48.255Z,38.10
2019-03-12T05:04:15.571Z,31.30
2019-03-12T05:06:42.950Z,28.17
2019-03-12T05:09:10.263Z,32.27
2019-03-12T05:11:37.604Z,35.63
2019-03-12T05:14:23.196Z,33.33
2019-03-12T05:16:51.191Z,31.77
2019-03-12T05:19:18.532Z,31.03
2019-03-12T05:21:45.915Z,30.80
2019-03-12T05:24:13.266Z,29.80
2019-03-12T05:26:40.579Z,32.60
2019-03-12T05:29:08.004Z,27.97
2019-03-12T05:31:35.322Z,30.70
2019-03-12T05:34:02.679Z,32.23
2019-03-12T05:36:30.015Z,20.13
2019-03-12T05:38:57.884Z,23.37
2019-03-12T05:41:25.206Z,23.77
2019-03-12T05:43:52.624Z,24.53
2019-03-12T05:46:19.962Z,26.07
2019-03-12T05:48:47.306Z,25.60
2019-03-12T05:51:14.703Z,24.07
2019-03-12T05:53:47.260Z,25.47
2019-03-12T05:56:14.584Z,27.83
2019-03-12T05:58:41.984Z,26.17
2019-03-12T06:01:09.384Z,24.63
2019-03-12T06:03:36.684Z,24.73
2019-03-12T06:06:04.120Z,26.07
2019-03-12T06:08:31.461Z,30.80
2019-03-12T06:10:58.780Z,31.43
2019-03-12T06:13:26.123Z,20.60
2019-03-12T06:15:54.060Z,24.00
2019-03-12T06:18:21.400Z,29.93
2019-03-12T06:20:48.722Z,22.07
2019-03-12T06:23:16.079Z,31.20
2019-03-12T06:25:43.432Z,29.20
2019-03-12T06:28:10.815Z,30.87
2019-03-12T06:30:40.012Z,23.13
2019-03-12T06:33:09.060Z,28.03
2019-03-12T06:35:38.041Z,29.03
2019-03-12T06:38:16.007Z,24.37
2019-03-12T06:40:47.592Z,26.40
2019-03-12T06:43:28.357Z,22.30
2019-03-12T06:46:06.312Z,24.83
2019-03-12T06:48:41.289Z,28.03
2019-03-12T06:51:13.255Z,21.83
2019-03-12T06:53:45.166Z,28.83
2019-03-12T06:56:22.923Z,27.80
2019-03-12T06:59:03.606Z,25.80
2019-03-12T07:01:47.649Z,31.63
2019-03-12T07:04:33.272Z,37.07
2019-03-12T07:07:11.568Z,37.97
2019-03-12T07:09:44.786Z,34.37
2019-03-12T07:12:26.121Z,37.07
2019-03-12T07:15:07.346Z,36.27
2019-03-12T07:17:51.652Z,29.37
2019-03-12T07:20:26.362Z,32.03
2019-03-12T07:22:55.379Z,29.13
2019-03-12T07:25:24.505Z,38.37
2019-03-12T07:27:56.513Z,42.80
2019-03-12T07:30:28.307Z,39.03
2019-03-12T07:33:09.373Z,39.53
2019-03-12T07:35:50.353Z,41.93
2019-03-12T07:38:19.346Z,42.00
2019-03-12T07:41:04.518Z,37.77
2019-03-12T07:43:33.485Z,38.23
2019-03-12T07:46:05.505Z,35.30
2019-03-12T07:48:34.513Z,32.80
2019-03-12T07:51:12.576Z,35.27
2019-03-12T07:53:59.691Z,34.60
2019-03-12T07:56:28.537Z,32.47
2019-03-12T07:58:59.572Z,34.70
2019-03-12T08:01:34.201Z,35.83
2019-03-12T08:04:20.177Z,32.20
2019-03-12T08:06:52.072Z,37.33
2019-03-12T08:09:33.316Z,29.13
2019-03-12T08:12:02.378Z,30.73
2019-03-12T08:17:29.888Z,27.40
2019-03-12T08:20:04.847Z,28.50
2019-03-12T08:22:59.095Z,30.20
2019-03-12T08:25:30.635Z,36.33
2019-03-12T08:28:05.715Z,24.43
2019-03-12T08:30:34.740Z,27.40
2019-03-12T08:33:03.751Z,20.93
2019-03-12T08:35:41.352Z,24.70
2019-03-12T08:38:16.313Z,19.03
2019-03-12T08:41:01.885Z,18.03
2019-03-12T08:43:30.882Z,15.70
2019-03-12T08:46:08.679Z,15.43
2019-03-12T08:48:40.090Z,19.47
2019-03-12T08:51:18.123Z,18.60
2019-03-12T08:54:02.337Z,19.30
2019-03-12T08:56:34.502Z,19.47
2019-03-12T08:59:15.722Z,18.00
2019-03-12T09:01:57.099Z,25.37
2019-03-12T09:04:42.359Z,20.37
2019-03-12T09:07:14.283Z,21.43
2019-03-12T09:09:52.378Z,22.50
2019-03-12T09:12:30.335Z,21.20
2019-03-12T09:15:15.496Z,21.37
2019-03-12T09:17:44.483Z,13.10
2019-03-12T09:20:13.535Z,10.20
2019-03-12T09:22:51.138Z,9.57
2019-03-12T09:25:38.356Z,11.53
2019-03-12T09:28:15.981Z,13.13
2019-03-12T09:30:56.945Z,13.30
2019-03-12T09:33:42.267Z,15.30
2019-03-12T09:36:14.014Z,12.93
2019-03-12T09:38:55.092Z,13.23
2019-03-12T09:41:24.148Z,16.33
2019-03-12T09:44:09.807Z,14.83
2019-03-12T09:46:47.668Z,11.93
2019-03-12T09:49:16.682Z,9.20
2019-03-12T09:51:45.656Z,12.70
2019-03-12T09:54:32.869Z,10.00
2019-03-12T09:57:04.298Z,17.70
2019-03-12T09:59:49.690Z,13.23
2019-03-12T10:02:18.637Z,14.77
2019-03-12T10:05:04.295Z,15.00
2019-03-12T10:07:40.105Z,18.20
2019-03-12T10:10:26.548Z,20.67
2019-03-12T10:13:13.455Z,16.47
2019-03-12T10:15:48.711Z,15.73
2019-03-12T10:18:17.689Z,13.47
2019-03-12T10:20:49.454Z,10.60
2019-03-12T10:23:18.521Z,10.57
2019-03-12T10:25:47.549Z,12.47
2019-03-12T10:28:16.515Z,14.20
2019-03-12T10:31:03.884Z,12.17
2019-03-12T10:33:49.109Z,10.40
2019-03-12T10:36:36.156Z,7.57
2019-03-12T10:39:23.282Z,15.83
2019-03-12T10:42:04.496Z,9.43
2019-03-12T10:44:50.068Z,8.10
2019-03-12T10:47:19.063Z,13.00
2019-03-12T10:49:46.421Z,20.77
2019-03-12T10:52:14.292Z,14.50
2019-03-12T10:54:41.637Z,10.37
2019-03-12T10:57:08.958Z,9.40
2019-03-12T10:59:37.391Z,9.70
2019-03-12T11:02:04.709Z,14.77
2019-03-12T11:04:32.081Z,4.83
2019-03-12T11:06:59.482Z,4.93
2019-03-12T11:09:26.788Z,5.87
2019-03-12T11:11:54.131Z,9.47
2019-03-12T11:14:21.534Z,5.53
2019-03-12T11:16:52.768Z,6.50
2019-03-12T11:19:20.092Z,8.33
2019-03-12T11:21:47.520Z,18.57
2019-03-12T11:24:15.472Z,13.73
2019-03-12T11:26:42.782Z,10.47
2019-03-12T11:29:10.125Z,11.03
2019-03-12T11:31:37.434Z,11.27
2019-03-12T11:34:04.768Z,9.93
2019-03-12T11:36:32.079Z,8.57
2019-03-12T11:38:59.448Z,12.50
2019-03-12T11:41:26.746Z,8.07
2019-03-12T11:43:54.144Z,6.73
2019-03-12T11:46:21.556Z,7.63
2019-03-12T11:48:49.125Z,7.00
2019-03-12T11:51:17.396Z,10.43
2019-03-12T11:53:44.734Z,12.63
2019-03-12T11:56:12.094Z,11.20
2019-03-12T11:58:39.443Z,7.73
2019-03-12T12:01:08.609Z,9.53
2019-03-12T12:03:35.968Z,9.93
2019-03-12T12:06:03.332Z,11.77
2019-03-12T12:08:30.773Z,8.10
2019-03-12T12:10:58.089Z,5.43
2019-03-12T12:13:25.476Z,5.00
2019-03-12T12:15:52.821Z,6.63
2019-03-12T12:18:20.980Z,5.93
2019-03-12T12:20:48.338Z,4.30
2019-03-12T12:23:15.669Z,6.27
2019-03-12T12:25:42.988Z,7.00
2019-03-12T12:28:10.413Z,7.93
2019-03-12T12:30:37.720Z,7.27
2019-03-12T12:33:05.174Z,9.10
2019-03-12T12:35:32.466Z,12.23
2019-03-12T12:37:59.853Z,8.60
2019-03-12T12:40:27.406Z,17.37
2019-03-12T12:42:54.842Z,11.93
2019-03-12T12:45:26.284Z,9.40
2019-03-12T12:47:53.782Z,11.27
2019-03-12T12:50:21.644Z,11.73
2019-03-12T12:52:48.929Z,17.67
2019-03-12T12:55:16.292Z,16.27
2019-03-12T12:57:43.604Z,14.30
2019-03-12T13:00:21.040Z,22.03
2019-03-12T13:02:48.359Z,29.20
2019-03-12T13:05:15.770Z,14.00
2019-03-12T13:07:43.151Z,14.50
2019-03-12T13:10:11.936Z,10.67
2019-03-12T13:12:39.340Z,33.97
2019-03-12T13:15:08.307Z,25.23
2019-03-12T13:17:35.642Z,21.33
2019-03-12T13:20:03.202Z,30.87
2019-03-12T13:22:30.578Z,15.80
2019-03-12T13:24:57.888Z,12.63
2019-03-12T13:27:25.579Z,16.43
2019-03-12T13:29:52.933Z,10.73
2019-03-12T13:32:20.313Z,9.80
2019-03-12T13:34:47.880Z,8.70
2019-03-12T13:37:15.240Z,10.43
2019-03-12T13:39:42.621Z,20.23
2019-03-12T13:42:09.933Z,11.87
2019-03-12T13:44:37.299Z,12.60
2019-03-12T13:47:04.587Z,11.33
2019-03-12T13:49:31.897Z,8.67
2019-03-12T13:51:59.248Z,6.33
2019-03-12T13:54:26.917Z,7.20
2019-03-12T13:56:54.223Z,8.20
2019-03-12T13:59:21.567Z,7.97
2019-03-12T14:01:48.900Z,11.00
2019-03-12T14:04:16.244Z,9.03
2019-03-12T14:06:43.564Z,7.83
2019-03-12T14:09:10.873Z,8.00
2019-03-12T14:11:39.833Z,9.23
2019-03-12T14:14:07.166Z,7.00
2019-03-12T14:16:34.476Z,10.03
2019-03-12T14:19:03.620Z,8.23
2019-03-12T14:21:32.516Z,9.40
2019-03-12T14:24:00.674Z,9.53
2019-03-12T14:26:28.355Z,9.17
2019-03-12T14:28:55.918Z,6.90
2019-03-12T14:31:23.253Z,9.10
2019-03-12T14:33:50.561Z,8.90
2019-03-12T14:36:17.910Z,5.60
2019-03-12T14:38:45.293Z,7.80
2019-03-12T14:41:12.613Z,6.77
2019-03-12T14:43:39.940Z,5.10
2019-03-12T14:46:07.294Z,7.40
2019-03-12T14:48:36.262Z,8.57
2019-03-12T14:51:04.088Z,6.47
2019-03-12T14:53:31.699Z,8.67
2019-03-12T14:55:59.026Z,10.40
2019-03-12T14:58:26.366Z,6.30
2019-03-12T15:00:53.817Z,6.53
2019-03-12T15:03:21.285Z,6.50
2019-03-12T15:05:48.755Z,10.10
2019-03-12T15:08:16.163Z,6.43
2019-03-12T15:10:43.506Z,6.60
2019-03-12T15:13:12.540Z,7.53
2019-03-12T15:15:39.833Z,10.23
2019-03-12T15:18:07.176Z,6.03
2019-03-12T15:20:34.739Z,6.57
2019-03-12T15:23:02.015Z,7.77
2019-03-12T15:25:29.336Z,8.33
2019-03-12T15:27:56.679Z,5.73
2019-03-12T15:30:25.355Z,7.67
2019-03-12T15:32:52.785Z,4.50
2019-03-12T15:35:20.182Z,8.00
2019-03-12T15:37:47.539Z,8.77
2019-03-12T15:40:14.964Z,10.43
2019-03-12T15:42:42.310Z,8.73
2019-03-12T15:45:11.254Z,8.93
2019-03-12T15:47:39.061Z,8.80
2019-03-12T15:50:09.827Z,11.87
2019-03-12T15:52:37.752Z,11.67
2019-03-12T15:55:08.550Z,7.23
2019-03-12T15:57:36.316Z,10.23
2019-03-12T16:00:05.168Z,7.23
2019-03-12T16:02:32.597Z,10.57
2019-03-12T16:05:03.771Z,8.40
2019-03-12T16:07:31.112Z,11.57
2019-03-12T16:09:58.498Z,10.83
2019-03-12T16:12:25.828Z,10.80
2019-03-12T16:14:53.146Z,12.67
2019-03-12T16:17:20.508Z,16.23
2019-03-12T16:19:47.804Z,21.23
2019-03-12T16:22:15.118Z,22.87
2019-03-12T16:24:42.514Z,20.93
2019-03-12T16:27:09.881Z,30.57
2019-03-12T16:29:37.455Z,28.10
2019-03-12T16:32:04.891Z,26.57
2019-03-12T16:34:33.554Z,29.37
2019-03-12T16:37:00.945Z,25.00
2019-03-12T16:39:28.261Z,22.70
2019-03-12T16:41:55.612Z,27.87
2019-03-12T16:44:22.994Z,22.93
2019-03-12T16:46:50.350Z,30.37
2019-03-12T16:49:24.911Z,31.50
2019-03-12T16:51:49.734Z,33.50
2019-03-12T16:54:17.049Z,33.17
2019-03-12T16:56:45.773Z,29.83
2019-03-12T16:59:13.229Z,32.90
2019-03-12T17:01:40.869Z,25.93
2019-03-12T17:04:08.166Z,26.90
2019-03-12T17:06:35.522Z,29.73
2019-03-12T17:09:04.508Z,31.10
2019-03-12T17:11:31.825Z,28.20
2019-03-12T17:14:05.520Z,28.67
2019-03-12T17:16:32.803Z,35.00
2019-03-12T17:19:00.156Z,32.57
2019-03-12T17:21:27.475Z,38.53
2019-03-12T17:23:54.837Z,39.13
2019-03-12T17:26:29.799Z,48.33
2019-03-12T17:28:57.121Z,52.83
2019-03-12T17:31:24.449Z,59.57
2019-03-12T17:33:51.792Z,57.43
2019-03-12T17:36:19.088Z,61.00
2019-03-12T17:38:47.331Z,72.70
2019-03-12T17:41:14.663Z,65.87
2019-03-12T17:43:42.107Z,74.50
2019-03-12T17:46:09.453Z,90.70
2019-03-12T17:48:36.775Z,90.77
2019-03-12T17:51:04.131Z,105.60
2019-03-12T17:53:31.456Z,112.57
2019-03-12T17:55:58.838Z,128.60
2019-03-12T17:58:26.172Z,172.33
2019-03-12T18:00:53.559Z,191.30
2019-03-12T18:03:21.018Z,206.53
2019-03-12T18:05:48.477Z,228.33
2019-03-12T18:08:15.826Z,269.60
2019-03-12T18:10:43.286Z,345.53
2019-03-12T18:13:10.782Z,348.83
2019-03-12T18:15:38.105Z,379.90
2019-03-12T18:18:05.506Z,385.40
2019-03-12T18:20:34.598Z,372.73
2019-03-12T18:23:02.081Z,350.30
2019-03-12T18:25:34.022Z,322.33
2019-03-12T18:28:01.383Z,293.40
2019-03-12T18:30:28.777Z,280.97
2019-03-12T18:32:56.233Z,275.30
2019-03-12T18:35:23.584Z,271.67
2019-03-12T18:37:50.944Z,260.53
2019-03-12T18:40:19.034Z,255.27
2019-03-12T18:42:46.482Z,224.27
2019-03-12T18:45:15.065Z,176.67
2019-03-12T18:47:42.616Z,148.77
2019-03-12T18:50:11.321Z,145.03
2019-03-12T18:52:38.679Z,128.97
2019-03-12T18:55:07.640Z,131.17
2019-03-12T18:57:34.990Z,129.00
2019-03-12T19:00:02.382Z,126.90
2019-03-12T19:02:29.756Z,126.53
2019-03-12T19:04:57.271Z,131.47
2019-03-12T19:07:24.617Z,130.27
2019-03-12T19:09:52.128Z,137.87
2019-03-12T19:12:19.453Z,140.83
2019-03-12T19:14:46.904Z,144.93
2019-03-12T19:17:14.317Z,145.17
2019-03-12T19:19:41.822Z,157.77
2019-03-12T19:22:09.285Z,158.20
2019-03-12T19:24:36.702Z,170.03
2019-03-12T19:27:05.785Z,164.97
2019-03-12T19:29:33.224Z,161.30
2019-03-12T19:32:02.222Z,157.63
2019-03-12T19:34:30.539Z,155.43
2019-03-12T19:36:57.973Z,143.83
2019-03-12T19:39:25.328Z,151.20
2019-03-12T19:41:53.062Z,160.77
2019-03-12T19:44:20.415Z,154.47
2019-03-12T19:46:47.889Z,170.60
2019-03-12T19:49:15.313Z,158.23
2019-03-12T19:51:46.718Z,153.90
2019-03-12T19:54:14.052Z,157.53
2019-03-12T19:56:41.612Z,146.20
2019-03-12T19:59:09.060Z,148.27
2019-03-12T20:01:36.454Z,137.77
2019-03-12T20:04:03.750Z,119.10
2019-03-12T20:06:31.301Z,114.53
2019-03-12T20:09:01.042Z,108.20
2019-03-12T20:11:33.148Z,101.23
2019-03-12T20:14:18.887Z,95.43
2019-03-12T20:16:47.855Z,98.30
2019-03-12T20:19:25.825Z,92.97
2019-03-12T20:22:00.777Z,97.10
2019-03-12T20:24:51.109Z,82.17
2019-03-12T20:27:23.025Z,82.00
2019-03-12T20:29:58.131Z,81.07
2019-03-12T20:32:27.249Z,79.00
2019-03-12T20:35:05.570Z,74.60
2019-03-12T20:37:49.567Z,73.97
2019-03-12T20:40:24.335Z,81.07
2019-03-12T20:43:09.817Z,70.87
2019-03-12T20:45:38.788Z,77.03
2019-03-12T20:48:07.986Z,83.57
2019-03-12T20:50:53.545Z,92.37
2019-03-12T20:53:39.082Z,99.30
2019-03-12T20:56:17.101Z,103.77
2019-03-12T20:59:01.317Z,108.30
2019-03-12T21:01:33.503Z,109.83
2019-03-12T21:04:05.211Z,114.30
2019-03-12T21:06:34.351Z,101.93
2019-03-12T21:09:20.019Z,107.63
2019-03-12T21:11:51.989Z,99.43
2019-03-12T21:14:24.035Z,96.40
2019-03-12T21:16:53.062Z,91.03
2019-03-12T21:19:38.737Z,90.27
2019-03-12T21:22:07.846Z,99.97
2019-03-12T21:24:53.523Z,98.13
2019-03-12T21:27:34.768Z,100.87
2019-03-12T21:30:01.942Z,91.40
2019-03-12T21:32:29.281Z,101.70
2019-03-12T21:34:56.655Z,98.33
2019-03-12T21:37:24.057Z,90.80
2019-03-12T21:39:55.660Z,95.10
2019-03-12T21:42:20.627Z,96.23
2019-03-12T21:44:47.913Z,97.00
2019-03-12T21:47:15.254Z,96.27
2019-03-12T21:49:42.624Z,104.27
2019-03-12T21:52:12.812Z,107.23
2019-03-12T21:54:40.175Z,107.57
2019-03-12T21:57:07.589Z,114.13
2019-03-12T21:59:34.921Z,98.53
2019-03-12T22:02:02.349Z,110.60
2019-03-12T22:04:29.779Z,99.87
2019-03-12T22:06:57.220Z,100.27
2019-03-12T22:09:24.607Z,89.83
2019-03-12T22:11:51.998Z,97.07
2019-03-12T22:14:19.405Z,101.07
2019-03-12T22:16:50.148Z,86.47
2019-03-12T22:19:17.575Z,90.87
2019-03-12T22:21:49.139Z,94.83
2019-03-12T22:24:18.096Z,93.23
2019-03-12T22:26:45.822Z,100.70
2019-03-12T22:29:13.153Z,98.40
2019-03-12T22:31:40.593Z,100.90
2019-03-12T22:34:08.079Z,105.93
2019-03-12T22:36:35.444Z,101.23
2019-03-12T22:39:02.980Z,95.30
2019-03-12T22:41:30.342Z,101.50
2019-03-12T22:43:57.657Z,96.53
2019-03-12T22:46:26.696Z,112.10
2019-03-12T22:48:53.997Z,114.10
2019-03-12T22:51:21.324Z,112.13
2019-03-12T22:53:48.742Z,109.63
2019-03-12T22:56:16.104Z,109.47
2019-03-12T22:58:43.506Z,103.13
2019-03-12T23:01:11.068Z,97.00
2019-03-12T23:03:38.561Z,102.03
2019-03-12T23:06:05.996Z,95.30
2019-03-12T23:08:33.383Z,94.57
2019-03-12T23:11:00.760Z,94.33
2019-03-12T23:13:28.133Z,97.77
2019-03-12T23:15:55.639Z,99.67
2019-03-12T23:18:23.064Z,98.90
2019-03-12T23:20:50.471Z,102.97
2019-03-12T23:23:17.827Z,103.67
2019-03-12T23:25:45.197Z,98.73
2019-03-12T23:28:12.608Z,92.10
2019-03-12T23:30:40.012Z,94.53
2019-03-12T23:33:07.470Z,88.70
2019-03-12T23:35:34.821Z,86.73
2019-03-12T23:38:02.214Z,80.80
2019-03-12T23:40:29.629Z,89.97
2019-03-12T23:42:56.985Z,70.70
2019-03-12T23:45:24.421Z,69.50
2019-03-12T23:47:51.834Z,58.80
2019-03-12T23:50:19.365Z,60.60
2019-03-12T23:52:46.771Z,50.40
2019-03-12T23:55:14.829Z,54.80
2019-03-12T23:57:42.195Z,54.93
